createdAt,value
2023-02-26T00:01:17.792Z,62.64
2023-02-26T00:04:19.336Z,63.30
2023-02-26T00:07:20.824Z,62.74
2023-02-26T00:10:22.295Z,62.58
2023-02-26T00:13:24.370Z,62.70
2023-02-26T00:16:36.322Z,62.61
2023-02-26T00:19:38.249Z,62.64
2023-02-26T00:22:40.741Z,62.50
2023-02-26T00:25:42.331Z,62.70
2023-02-26T00:28:44.266Z,62.65
2023-02-26T00:31:46.102Z,62.73
2023-02-26T00:34:48.406Z,62.70
2023-02-26T00:38:00.249Z,62.64
2023-02-26T00:41:01.846Z,62.57
2023-02-26T00:44:03.767Z,62.72
2023-02-26T00:47:14.786Z,62.48
2023-02-26T00:50:18.888Z,62.59
2023-02-26T00:53:28.810Z,62.56
2023-02-26T00:56:30.356Z,62.46
2023-02-26T00:59:31.842Z,62.41
2023-02-26T01:02:35.412Z,62.44
2023-02-26T01:05:37.290Z,62.44
2023-02-26T01:08:53.024Z,62.46
2023-02-26T01:11:57.403Z,62.43
2023-02-26T01:14:59.223Z,62.79
2023-02-26T01:18:10.691Z,62.85
2023-02-26T01:21:19.192Z,62.75
2023-02-26T01:24:22.921Z,62.71
2023-02-26T01:27:24.586Z,62.71
2023-02-26T01:30:26.782Z,62.64
2023-02-26T01:33:32.776Z,62.52
2023-02-26T01:36:41.616Z,62.26
2023-02-26T01:40:00.565Z,62.32
2023-02-26T01:43:16.862Z,62.00
2023-02-26T01:46:26.118Z,62.05
2023-02-26T01:49:28.001Z,61.96
2023-02-26T01:52:32.440Z,61.97
2023-02-26T01:55:35.620Z,61.88
2023-02-26T01:58:37.842Z,61.92
2023-02-26T02:01:40.331Z,61.81
2023-02-26T02:04:44.122Z,61.83
2023-02-26T02:07:45.639Z,61.78
2023-02-26T02:10:48.984Z,61.88
2023-02-26T02:14:07.961Z,61.79
2023-02-26T02:17:19.423Z,61.70
2023-02-26T02:20:27.630Z,61.66
2023-02-26T02:23:54.100Z,61.51
2023-02-26T02:27:37.780Z,61.48
2023-02-26T02:31:07.395Z,61.43
2023-02-26T02:34:19.408Z,61.46
2023-02-26T02:37:29.312Z,61.49
2023-02-26T02:40:37.414Z,61.37
2023-02-26T02:43:42.260Z,61.41
2023-02-26T02:46:47.304Z,61.38
2023-02-26T02:49:58.319Z,61.25
2023-02-26T02:53:21.128Z,61.15
2023-02-26T02:56:30.478Z,61.27
2023-02-26T02:59:43.816Z,61.12
2023-02-26T03:02:54.319Z,61.13
2023-02-26T03:05:55.960Z,61.11
2023-02-26T03:08:58.941Z,61.12
2023-02-26T03:12:00.629Z,61.16
2023-02-26T03:15:02.954Z,61.22
2023-02-26T03:18:34.901Z,61.19
2023-02-26T03:21:50.025Z,61.15
2023-02-26T03:25:21.968Z,61.13
2023-02-26T03:28:31.470Z,61.13
2023-02-26T03:31:44.201Z,61.42
2023-02-26T03:35:09.575Z,61.47
2023-02-26T03:38:45.993Z,61.46
2023-02-26T03:41:58.005Z,61.28
2023-02-26T03:45:13.109Z,61.46
2023-02-26T03:48:20.403Z,61.43
2023-02-26T03:51:24.429Z,61.52
2023-02-26T03:54:51.730Z,61.39
2023-02-26T03:58:13.590Z,61.55
2023-02-26T04:01:59.459Z,61.57
2023-02-26T04:05:09.040Z,61.48
2023-02-26T04:08:10.704Z,61.48
2023-02-26T04:11:17.323Z,61.40
2023-02-26T04:14:19.108Z,61.44
2023-02-26T04:17:20.702Z,61.51
2023-02-26T04:20:22.555Z,61.47
2023-02-26T04:23:24.341Z,61.51
2023-02-26T04:26:26.208Z,61.48
2023-02-26T04:29:28.535Z,61.45
2023-02-26T04:32:30.167Z,61.62
2023-02-26T04:35:31.742Z,61.63
2023-02-26T04:38:33.331Z,61.67
2023-02-26T04:41:34.802Z,61.88
2023-02-26T04:44:37.137Z,61.72
2023-02-26T04:47:38.653Z,61.51
2023-02-26T04:50:40.800Z,61.61
2023-02-26T04:53:42.318Z,61.57
2023-02-26T04:56:44.418Z,61.56
2023-02-26T04:59:45.983Z,61.51
2023-02-26T05:02:48.020Z,61.75
2023-02-26T05:05:49.744Z,61.53
2023-02-26T05:08:51.375Z,61.91
2023-02-26T05:11:53.635Z,61.52
2023-02-26T05:14:55.137Z,61.49
2023-02-26T05:17:56.684Z,61.47
2023-02-26T05:20:58.819Z,61.54
2023-02-26T05:24:00.651Z,61.48
2023-02-26T05:27:02.208Z,61.48
2023-02-26T05:30:06.363Z,61.39
2023-02-26T05:33:10.101Z,61.57
2023-02-26T05:36:12.551Z,61.71
2023-02-26T05:39:14.056Z,61.85
2023-02-26T05:42:16.037Z,61.75
2023-02-26T05:45:18.293Z,61.68
2023-02-26T05:48:19.922Z,61.87
2023-02-26T05:51:21.500Z,61.48
2023-02-26T05:54:23.083Z,61.51
2023-02-26T05:57:24.716Z,61.51
2023-02-26T06:00:26.407Z,61.43
2023-02-26T06:03:28.083Z,61.40
2023-02-26T06:06:29.575Z,61.48
2023-02-26T06:09:31.097Z,61.53
2023-02-26T06:12:32.635Z,61.52
2023-02-26T06:15:34.264Z,61.52
2023-02-26T06:18:35.731Z,61.57
2023-02-26T06:21:37.212Z,61.56
2023-02-26T06:24:38.664Z,61.65
2023-02-26T06:27:40.158Z,61.67
2023-02-26T06:30:41.801Z,61.67
2023-02-26T06:33:43.317Z,61.69
2023-02-26T06:36:45.262Z,61.76
2023-02-26T06:39:46.792Z,61.92
2023-02-26T06:42:48.342Z,61.81
2023-02-26T06:45:49.953Z,61.76
2023-02-26T06:48:51.460Z,61.74
2023-02-26T06:51:52.953Z,61.76
2023-02-26T06:54:54.429Z,61.82
2023-02-26T06:57:57.122Z,61.82
2023-02-26T07:00:58.639Z,61.92
2023-02-26T07:04:00.199Z,61.87
2023-02-26T07:07:01.697Z,61.94
2023-02-26T07:10:03.953Z,61.99
2023-02-26T07:13:05.534Z,62.08
2023-02-26T07:16:07.572Z,62.09
2023-02-26T07:19:09.113Z,62.09
2023-02-26T07:22:10.563Z,62.21
2023-02-26T07:25:13.123Z,61.95
2023-02-26T07:28:14.597Z,61.87
2023-02-26T07:31:16.662Z,62.27
2023-02-26T07:34:18.344Z,62.22
2023-02-26T07:37:19.819Z,62.39
2023-02-26T07:40:21.332Z,62.45
2023-02-26T07:43:23.700Z,62.46
2023-02-26T07:46:25.530Z,62.71
2023-02-26T07:49:27.339Z,62.65
2023-02-26T07:52:29.018Z,62.78
2023-02-26T07:55:30.528Z,62.82
2023-02-26T07:58:32.092Z,62.87
2023-02-26T08:01:33.636Z,62.87
2023-02-26T08:04:35.155Z,62.84
2023-02-26T08:07:37.554Z,62.89
2023-02-26T08:10:42.325Z,62.75
2023-02-26T08:13:43.905Z,62.88
2023-02-26T08:16:45.407Z,62.98
2023-02-26T08:19:46.951Z,62.86
2023-02-26T08:22:48.511Z,62.82
2023-02-26T08:25:50.347Z,62.85
2023-02-26T08:28:51.972Z,62.78
2023-02-26T08:31:53.597Z,62.82
2023-02-26T08:34:55.656Z,63.01
2023-02-26T08:37:57.508Z,63.18
2023-02-26T08:40:59.019Z,63.33
2023-02-26T08:44:01.192Z,63.31
2023-02-26T08:47:03.658Z,63.60
2023-02-26T08:50:07.069Z,63.58
2023-02-26T08:53:08.710Z,63.50
2023-02-26T08:56:10.205Z,63.94
2023-02-26T08:59:12.983Z,63.67
2023-02-26T09:02:14.931Z,63.69
2023-02-26T09:05:17.430Z,63.60
2023-02-26T09:08:20.512Z,63.65
2023-02-26T09:11:22.080Z,63.82
2023-02-26T09:14:23.582Z,63.65
2023-02-26T09:17:25.993Z,63.86
2023-02-26T09:20:27.709Z,64.13
2023-02-26T09:23:29.721Z,64.41
2023-02-26T09:26:31.241Z,64.68
2023-02-26T09:29:33.067Z,64.70
2023-02-26T09:32:34.706Z,64.99
2023-02-26T09:35:36.641Z,64.95
2023-02-26T09:38:38.228Z,65.04
2023-02-26T09:42:07.545Z,64.95
2023-02-26T09:45:20.961Z,64.87
2023-02-26T09:48:24.382Z,64.94
2023-02-26T09:51:27.106Z,64.85
2023-02-26T09:54:33.914Z,64.61
2023-02-26T09:57:39.042Z,64.88
2023-02-26T10:00:47.459Z,64.98
2023-02-26T10:04:07.285Z,64.92
2023-02-26T10:07:08.917Z,65.09
2023-02-26T10:11:15.331Z,64.95
2023-02-26T10:14:43.198Z,65.00
2023-02-26T10:18:12.447Z,64.96
2023-02-26T10:21:33.227Z,64.89
2023-02-26T10:24:46.988Z,64.86
2023-02-26T10:27:58.256Z,64.93
2023-02-26T10:31:46.127Z,64.88
2023-02-26T10:35:11.514Z,64.87
2023-02-26T10:38:18.122Z,64.85
2023-02-26T10:41:28.262Z,64.82
2023-02-26T10:44:37.376Z,65.09
2023-02-26T10:47:44.390Z,65.10
2023-02-26T10:50:52.977Z,65.11
2023-02-26T10:54:03.727Z,65.03
2023-02-26T10:57:09.200Z,65.02
2023-02-26T11:00:19.175Z,65.04
2023-02-26T11:03:23.732Z,64.89
2023-02-26T11:06:42.021Z,64.89
2023-02-26T11:09:45.805Z,64.68
2023-02-26T11:12:47.738Z,64.63
2023-02-26T11:15:52.334Z,64.55
2023-02-26T11:18:55.705Z,64.50
2023-02-26T11:21:59.674Z,64.32
2023-02-26T11:25:02.453Z,64.28
2023-02-26T11:28:18.519Z,64.27
2023-02-26T11:31:22.256Z,64.27
2023-02-26T11:34:26.291Z,64.15
2023-02-26T11:37:31.065Z,64.22
2023-02-26T11:40:38.683Z,64.33
2023-02-26T11:43:44.935Z,64.56
2023-02-26T11:46:56.457Z,64.76
2023-02-26T11:50:05.527Z,64.92
2023-02-26T11:53:17.297Z,64.96
2023-02-26T11:56:40.351Z,65.16
2023-02-26T11:59:41.858Z,65.09
2023-02-26T12:02:43.753Z,65.23
2023-02-26T12:05:45.449Z,65.14
2023-02-26T12:08:48.093Z,65.31
2023-02-26T12:12:12.779Z,65.30
2023-02-26T12:15:42.771Z,65.35
2023-02-26T12:18:59.312Z,65.46
2023-02-26T12:22:19.301Z,65.40
2023-02-26T12:25:39.563Z,65.60
2023-02-26T12:29:07.046Z,65.41
2023-02-26T12:32:30.341Z,65.33
2023-02-26T12:35:43.508Z,65.35
2023-02-26T12:39:01.710Z,65.25
2023-02-26T12:42:28.206Z,65.01
2023-02-26T12:45:47.633Z,64.82
2023-02-26T12:48:57.997Z,64.92
2023-02-26T12:52:31.520Z,64.91
2023-02-26T12:55:48.257Z,64.86
2023-02-26T12:59:23.224Z,64.76
2023-02-26T13:02:43.057Z,64.65
2023-02-26T13:05:53.656Z,64.42
2023-02-26T13:09:14.087Z,64.69
2023-02-26T13:12:27.919Z,64.89
2023-02-26T13:16:07.941Z,65.08
2023-02-26T13:19:30.677Z,65.24
2023-02-26T13:22:40.885Z,65.61
2023-02-26T13:25:52.390Z,65.32
2023-02-26T13:29:11.971Z,65.31
2023-02-26T13:32:22.358Z,65.35
2023-02-26T13:35:32.245Z,65.43
2023-02-26T13:39:11.236Z,65.52
2023-02-26T13:42:27.414Z,65.54
2023-02-26T13:45:44.285Z,65.51
2023-02-26T13:48:52.959Z,65.34
2023-02-26T13:51:55.079Z,65.28
2023-02-26T13:54:59.293Z,65.41
2023-02-26T13:58:27.666Z,65.44
2023-02-26T14:01:34.154Z,65.45
2023-02-26T14:04:49.736Z,65.27
2023-02-26T14:07:57.195Z,65.29
2023-02-26T14:11:25.267Z,65.03
2023-02-26T14:14:36.642Z,65.00
2023-02-26T14:17:39.628Z,64.95
2023-02-26T14:20:41.283Z,64.88
2023-02-26T14:23:48.574Z,64.87
2023-02-26T14:27:07.317Z,64.64
2023-02-26T14:30:08.961Z,48.57
2023-02-26T14:33:17.114Z,41.33
2023-02-26T14:36:26.231Z,34.28
2023-02-26T14:39:38.810Z,39.74
2023-02-26T14:42:59.096Z,44.75
2023-02-26T14:46:02.133Z,46.98
2023-02-26T14:49:05.068Z,48.34
2023-02-26T14:52:15.429Z,49.38
2023-02-26T14:55:41.287Z,50.05
2023-02-26T14:59:01.298Z,50.74
2023-02-26T15:02:25.052Z,51.22
2023-02-26T15:05:43.654Z,51.75
2023-02-26T15:09:03.445Z,52.04
2023-02-26T15:12:05.089Z,52.46
2023-02-26T15:15:27.865Z,52.73
2023-02-26T15:18:53.501Z,53.15
2023-02-26T15:22:44.473Z,53.46
2023-02-26T15:25:48.206Z,53.88
2023-02-26T15:28:51.200Z,53.98
2023-02-26T15:31:56.640Z,54.25
2023-02-26T15:35:17.095Z,54.55
2023-02-26T15:38:19.150Z,55.01
2023-02-26T15:41:22.179Z,55.21
2023-02-26T15:44:30.735Z,55.87
2023-02-26T15:47:32.894Z,56.36
2023-02-26T15:50:39.063Z,56.71
2023-02-26T15:53:47.901Z,56.99
2023-02-26T15:56:50.391Z,57.35
2023-02-26T16:00:01.123Z,57.58
2023-02-26T16:03:04.516Z,57.86
2023-02-26T16:06:11.142Z,58.14
2023-02-26T16:09:17.181Z,58.19
2023-02-26T16:12:20.014Z,58.32
2023-02-26T16:15:31.919Z,58.46
2023-02-26T16:18:34.966Z,58.66
2023-02-26T16:21:40.156Z,58.77
2023-02-26T16:24:41.771Z,58.79
2023-02-26T16:27:44.428Z,59.02
2023-02-26T16:30:54.062Z,59.11
2023-02-26T16:34:07.652Z,59.08
2023-02-26T16:37:24.515Z,59.19
2023-02-26T16:40:27.459Z,59.16
2023-02-26T16:43:49.261Z,59.55
2023-02-26T16:46:52.701Z,59.76
2023-02-26T16:49:54.307Z,60.03
2023-02-26T16:53:04.462Z,60.40
2023-02-26T16:56:06.242Z,60.60
2023-02-26T16:59:17.167Z,60.88
2023-02-26T17:02:24.920Z,61.18
2023-02-26T17:05:31.052Z,61.35
2023-02-26T17:08:36.517Z,61.48
2023-02-26T17:11:44.346Z,61.71
2023-02-26T17:14:52.275Z,62.01
2023-02-26T17:17:56.706Z,62.16
2023-02-26T17:21:04.062Z,62.15
2023-02-26T17:24:05.985Z,62.01
2023-02-26T17:27:10.029Z,61.61
2023-02-26T17:30:16.099Z,61.49
2023-02-26T17:33:18.165Z,61.37
2023-02-26T17:36:21.221Z,60.91
2023-02-26T17:39:23.077Z,60.78
2023-02-26T17:42:24.579Z,60.53
2023-02-26T17:45:26.155Z,60.32
2023-02-26T17:48:27.720Z,60.10
2023-02-26T17:51:29.444Z,59.98
2023-02-26T17:54:31.191Z,59.83
2023-02-26T17:57:32.652Z,59.90
2023-02-26T18:00:39.639Z,59.92
2023-02-26T18:03:41.506Z,60.31
2023-02-26T18:06:43.133Z,60.06
2023-02-26T18:09:46.786Z,59.77
2023-02-26T18:12:48.444Z,59.77
2023-02-26T18:15:52.112Z,59.69
2023-02-26T18:18:54.160Z,59.92
2023-02-26T18:21:55.807Z,59.48
2023-02-26T18:24:57.294Z,59.27
2023-02-26T18:28:02.111Z,59.19
2023-02-26T18:31:08.599Z,59.09
2023-02-26T18:34:10.340Z,58.97
2023-02-26T18:37:18.551Z,58.89
2023-02-26T18:40:22.699Z,58.92
2023-02-26T18:43:24.257Z,58.86
2023-02-26T18:46:26.981Z,58.67
2023-02-26T18:49:28.584Z,58.66
2023-02-26T18:52:30.075Z,58.50
2023-02-26T18:55:31.597Z,58.68
2023-02-26T18:58:33.155Z,58.55
2023-02-26T19:01:34.843Z,58.77
2023-02-26T19:04:36.410Z,58.58
2023-02-26T19:07:38.206Z,59.68
2023-02-26T19:10:39.990Z,59.89
2023-02-26T19:13:41.502Z,60.26
2023-02-26T19:16:43.694Z,60.41
2023-02-26T19:19:45.687Z,60.47
2023-02-26T19:22:47.252Z,60.60
2023-02-26T19:25:51.412Z,60.79
2023-02-26T19:28:52.920Z,61.18
2023-02-26T19:31:54.559Z,60.94
2023-02-26T19:34:56.834Z,60.87
2023-02-26T19:37:58.392Z,60.97
2023-02-26T19:41:00.560Z,60.83
2023-02-26T19:44:02.072Z,61.06
2023-02-26T19:47:03.820Z,60.79
2023-02-26T19:50:06.053Z,60.63
2023-02-26T19:53:07.588Z,60.63
2023-02-26T19:56:09.470Z,60.60
2023-02-26T19:59:12.274Z,60.55
2023-02-26T20:02:14.802Z,60.49
2023-02-26T20:05:17.856Z,60.39
2023-02-26T20:08:25.529Z,60.41
2023-02-26T20:11:27.447Z,60.42
2023-02-26T20:14:29.197Z,60.37
2023-02-26T20:17:30.667Z,60.35
2023-02-26T20:20:32.129Z,60.43
2023-02-26T20:23:36.951Z,60.66
2023-02-26T20:26:38.584Z,60.98
2023-02-26T20:29:40.199Z,61.07
2023-02-26T20:32:41.820Z,61.34
2023-02-26T20:35:45.914Z,61.38
2023-02-26T20:38:47.504Z,61.54
2023-02-26T20:41:50.402Z,61.60
2023-02-26T20:44:51.864Z,61.44
2023-02-26T20:47:53.340Z,61.79
2023-02-26T20:51:02.705Z,61.85
2023-02-26T20:54:04.546Z,62.02
2023-02-26T20:57:06.153Z,62.23
2023-02-26T21:00:11.216Z,62.14
2023-02-26T21:03:12.876Z,62.04
2023-02-26T21:06:14.425Z,62.14
2023-02-26T21:09:16.707Z,62.16
2023-02-26T21:12:18.296Z,62.32
2023-02-26T21:15:20.123Z,62.30
2023-02-26T21:18:21.614Z,62.46
2023-02-26T21:21:23.256Z,62.60
2023-02-26T21:24:24.864Z,62.61
2023-02-26T21:27:26.425Z,62.74
2023-02-26T21:30:28.843Z,62.74
2023-02-26T21:33:30.643Z,62.60
2023-02-26T21:36:32.137Z,62.64
2023-02-26T21:39:34.678Z,62.47
2023-02-26T21:42:36.278Z,62.31
2023-02-26T21:45:39.049Z,62.30
2023-02-26T21:48:40.572Z,62.35
2023-02-26T21:51:42.063Z,62.23
2023-02-26T21:54:43.808Z,62.27
2023-02-26T21:57:45.472Z,62.27
2023-02-26T22:00:47.001Z,62.05
2023-02-26T22:03:48.688Z,61.98
2023-02-26T22:06:50.341Z,61.92
2023-02-26T22:09:51.835Z,62.21
2023-02-26T22:12:53.311Z,61.80
2023-02-26T22:15:54.880Z,61.83
2023-02-26T22:18:56.413Z,61.82
2023-02-26T22:21:57.931Z,61.75
2023-02-26T22:24:59.576Z,61.72
2023-02-26T22:28:01.049Z,61.67
2023-02-26T22:31:02.864Z,61.66
2023-02-26T22:34:04.415Z,61.71
2023-02-26T22:37:05.914Z,61.57
2023-02-26T22:40:08.650Z,61.75
2023-02-26T22:43:10.237Z,61.56
2023-02-26T22:46:11.956Z,61.43
2023-02-26T22:49:13.476Z,61.46
2023-02-26T22:52:15.221Z,61.29
2023-02-26T22:55:17.064Z,61.34
2023-02-26T22:58:18.558Z,61.35
2023-02-26T23:01:20.571Z,61.18
2023-02-26T23:04:22.149Z,60.83
2023-02-26T23:07:23.668Z,60.94
2023-02-26T23:10:25.206Z,60.91
2023-02-26T23:13:30.183Z,60.79
2023-02-26T23:16:31.792Z,60.81
2023-02-26T23:19:33.261Z,60.98
2023-02-26T23:22:34.735Z,60.99
2023-02-26T23:25:36.229Z,61.08
2023-02-26T23:28:37.935Z,61.13
2023-02-26T23:31:40.060Z,61.15
2023-02-26T23:34:41.593Z,61.04
2023-02-26T23:37:43.067Z,60.95
2023-02-26T23:40:44.530Z,60.94
2023-02-26T23:43:46.021Z,61.20
2023-02-26T23:46:47.620Z,61.27
2023-02-26T23:49:49.146Z,61.15
2023-02-26T23:52:50.821Z,61.15
2023-02-26T23:55:58.726Z,61.27
2023-02-26T23:59:00.210Z,61.24
